createdAt,value
2022-08-31T00:00:59.053Z,3.38
2022-08-31T00:03:45.095Z,3.20
2022-08-31T00:06:12.654Z,2.60
2022-08-31T00:08:40.250Z,3.30
2022-08-31T00:11:10.615Z,3.22
2022-08-31T00:13:38.290Z,3.17
2022-08-31T00:16:05.915Z,3.13
2022-08-31T00:18:33.593Z,3.30
2022-08-31T00:21:01.201Z,3.20
2022-08-31T00:23:28.890Z,3.42
2022-08-31T00:25:57.654Z,3.00
2022-08-31T00:28:25.386Z,3.22
2022-08-31T00:30:53.083Z,3.50
2022-08-31T00:33:21.584Z,3.30
2022-08-31T00:35:49.275Z,3.47
2022-08-31T00:38:16.846Z,3.42
2022-08-31T00:40:46.262Z,3.42
2022-08-31T00:43:33.928Z,3.30
2022-08-31T00:46:01.673Z,3.60
2022-08-31T00:48:29.348Z,3.78
2022-08-31T00:50:57.111Z,3.92
2022-08-31T00:53:24.863Z,3.42
2022-08-31T00:55:52.474Z,3.35
2022-08-31T00:58:20.103Z,3.63
2022-08-31T01:00:49.165Z,3.83
2022-08-31T01:03:17.011Z,3.22
2022-08-31T01:05:44.882Z,3.78
2022-08-31T01:08:12.591Z,3.38
2022-08-31T01:10:43.971Z,3.33
2022-08-31T01:13:15.237Z,3.65
2022-08-31T01:15:46.017Z,3.40
2022-08-31T01:18:13.636Z,3.10
2022-08-31T01:20:59.643Z,3.47
2022-08-31T01:23:28.926Z,3.65
2022-08-31T01:25:57.083Z,3.60
2022-08-31T01:28:25.585Z,3.65
2022-08-31T01:31:01.071Z,3.20
2022-08-31T01:33:29.032Z,3.47
2022-08-31T01:35:56.725Z,3.60
2022-08-31T01:38:25.058Z,3.97
2022-08-31T01:40:57.406Z,3.45
2022-08-31T01:43:25.775Z,3.20
2022-08-31T01:45:53.564Z,3.40
2022-08-31T01:48:21.791Z,3.60
2022-08-31T01:50:49.547Z,3.40
2022-08-31T01:53:17.743Z,3.20
2022-08-31T01:55:46.506Z,3.42
2022-08-31T01:58:15.329Z,3.40
2022-08-31T02:01:32.655Z,3.20
2022-08-31T02:03:57.468Z,3.30
2022-08-31T02:06:25.580Z,3.63
2022-08-31T02:08:53.355Z,3.33
2022-08-31T02:11:20.902Z,3.63
2022-08-31T02:13:48.403Z,3.42
2022-08-31T02:16:18.643Z,3.30
2022-08-31T02:18:46.321Z,3.10
2022-08-31T02:21:14.063Z,3.28
2022-08-31T02:23:42.824Z,3.40
2022-08-31T02:26:10.747Z,3.33
2022-08-31T02:28:38.631Z,3.22
2022-08-31T02:31:06.455Z,3.35
2022-08-31T02:33:44.789Z,3.65
2022-08-31T02:36:12.427Z,3.38
2022-08-31T02:38:40.463Z,3.45
2022-08-31T02:41:08.052Z,3.28
2022-08-31T02:43:38.474Z,3.13
2022-08-31T02:46:06.381Z,3.38
2022-08-31T02:48:40.708Z,3.50
2022-08-31T02:51:11.347Z,3.20
2022-08-31T02:53:39.657Z,3.38
2022-08-31T02:56:08.794Z,3.40
2022-08-31T02:58:37.549Z,3.40
2022-08-31T03:01:05.052Z,3.25
2022-08-31T03:03:34.975Z,3.30
2022-08-31T03:06:03.277Z,3.45
2022-08-31T03:08:34.048Z,3.15
2022-08-31T03:11:01.861Z,3.90
2022-08-31T03:13:30.023Z,3.40
2022-08-31T03:15:58.173Z,3.03
2022-08-31T03:18:26.832Z,3.55
2022-08-31T03:20:54.442Z,3.45
2022-08-31T03:23:21.921Z,3.45
2022-08-31T03:25:49.601Z,3.35
2022-08-31T03:28:17.214Z,3.22
2022-08-31T03:30:59.884Z,3.75
2022-08-31T03:33:28.000Z,3.20
2022-08-31T03:35:56.271Z,3.05
2022-08-31T03:38:24.788Z,2.80
2022-08-31T03:40:52.764Z,2.80
2022-08-31T03:43:21.578Z,3.42
2022-08-31T03:45:51.280Z,3.20
2022-08-31T03:48:19.039Z,3.25
2022-08-31T03:50:46.715Z,3.22
2022-08-31T03:53:23.163Z,3.03
2022-08-31T03:56:01.079Z,3.38
2022-08-31T03:58:31.593Z,3.10
2022-08-31T04:01:01.005Z,3.40
2022-08-31T04:03:51.823Z,3.22
2022-08-31T04:06:38.150Z,3.08
2022-08-31T04:09:24.232Z,3.45
2022-08-31T04:12:11.796Z,3.15
2022-08-31T04:14:57.519Z,3.13
2022-08-31T04:17:44.988Z,3.53
2022-08-31T04:20:40.718Z,3.20
2022-08-31T04:23:09.827Z,3.08
2022-08-31T04:25:40.660Z,2.85
2022-08-31T04:28:09.273Z,3.20
2022-08-31T04:30:39.045Z,3.20
2022-08-31T04:33:06.651Z,2.95
2022-08-31T04:35:34.339Z,3.08
2022-08-31T04:38:02.275Z,3.22
2022-08-31T04:40:30.370Z,3.20
2022-08-31T04:43:00.171Z,2.80
2022-08-31T04:45:28.316Z,3.33
2022-08-31T04:47:56.071Z,3.25
2022-08-31T04:50:24.194Z,3.10
2022-08-31T04:53:09.906Z,2.97
2022-08-31T04:55:41.537Z,3.10
2022-08-31T04:58:11.047Z,3.30
2022-08-31T05:00:38.649Z,3.00
2022-08-31T05:03:18.988Z,3.42
2022-08-31T05:05:49.254Z,2.90
2022-08-31T05:08:16.813Z,3.00
2022-08-31T05:10:44.592Z,3.17
2022-08-31T05:13:12.213Z,3.17
2022-08-31T05:15:44.891Z,3.22
2022-08-31T05:18:18.173Z,3.15
2022-08-31T05:20:55.810Z,2.80
2022-08-31T05:23:23.566Z,3.33
2022-08-31T05:25:51.293Z,3.25
2022-08-31T05:28:23.685Z,3.42
2022-08-31T05:30:51.569Z,3.13
2022-08-31T05:33:31.127Z,3.13
2022-08-31T05:36:01.489Z,3.03
2022-08-31T05:38:29.069Z,3.40
2022-08-31T05:40:58.774Z,3.10
2022-08-31T05:43:26.480Z,3.25
2022-08-31T05:45:55.137Z,3.03
2022-08-31T05:48:23.384Z,3.20
2022-08-31T05:51:01.153Z,3.08
2022-08-31T05:53:28.844Z,3.22
2022-08-31T05:56:00.558Z,3.30
2022-08-31T05:58:28.901Z,3.22
2022-08-31T06:00:56.497Z,3.63
2022-08-31T06:03:52.610Z,3.53
2022-08-31T06:06:21.275Z,2.90
2022-08-31T06:08:54.088Z,3.05
2022-08-31T06:11:22.797Z,2.92
2022-08-31T06:13:53.671Z,3.28
2022-08-31T06:16:21.544Z,3.13
2022-08-31T06:18:53.168Z,3.25
2022-08-31T06:21:25.951Z,3.50
2022-08-31T06:23:55.501Z,3.08
2022-08-31T06:26:24.527Z,3.30
2022-08-31T06:28:53.492Z,3.17
2022-08-31T06:31:24.550Z,3.20
2022-08-31T06:33:52.334Z,3.25
2022-08-31T06:36:39.853Z,3.05
2022-08-31T06:39:16.096Z,3.10
2022-08-31T06:41:52.702Z,3.00
2022-08-31T06:44:34.451Z,3.15
2022-08-31T06:47:28.015Z,3.20
2022-08-31T06:49:57.315Z,3.08
2022-08-31T06:52:25.125Z,3.05
2022-08-31T06:55:06.929Z,3.22
2022-08-31T06:57:34.566Z,3.03
2022-08-31T07:00:36.582Z,3.30
2022-08-31T07:03:33.377Z,3.03
2022-08-31T07:06:22.372Z,3.20
2022-08-31T07:08:56.476Z,2.95
2022-08-31T07:11:26.258Z,3.13
2022-08-31T07:13:55.017Z,3.00
2022-08-31T07:16:24.110Z,2.88
2022-08-31T07:18:53.506Z,2.75
2022-08-31T07:21:22.923Z,3.00
2022-08-31T07:23:50.693Z,2.97
2022-08-31T07:26:25.551Z,3.03
2022-08-31T07:28:54.355Z,3.38
2022-08-31T07:31:23.435Z,2.90
2022-08-31T07:33:52.511Z,3.33
2022-08-31T07:36:20.291Z,2.90
2022-08-31T07:39:40.296Z,2.72
2022-08-31T07:42:11.120Z,2.78
2022-08-31T07:44:41.502Z,3.15
2022-08-31T07:47:14.260Z,3.08
2022-08-31T07:49:49.006Z,3.00
2022-08-31T07:52:47.304Z,3.20
2022-08-31T07:55:36.222Z,2.92
2022-08-31T07:58:15.537Z,2.67
2022-08-31T08:00:47.820Z,2.88
2022-08-31T08:03:15.602Z,3.13
2022-08-31T08:06:12.560Z,2.90
2022-08-31T08:09:24.398Z,2.88
2022-08-31T08:12:04.373Z,3.03
2022-08-31T08:14:45.011Z,3.10
2022-08-31T08:17:26.210Z,2.90
2022-08-31T08:20:04.373Z,2.75
2022-08-31T08:22:51.645Z,2.70
2022-08-31T08:25:40.435Z,2.80
2022-08-31T08:28:43.117Z,2.50
2022-08-31T08:31:17.643Z,2.80
2022-08-31T08:33:45.749Z,3.00
2022-08-31T08:36:20.896Z,2.92
2022-08-31T08:38:50.654Z,3.00
2022-08-31T08:41:21.301Z,2.80
2022-08-31T08:43:52.742Z,3.10
2022-08-31T08:46:40.519Z,2.78
2022-08-31T08:49:31.288Z,2.70
2022-08-31T08:52:06.174Z,2.60
2022-08-31T08:54:35.565Z,2.83
2022-08-31T08:57:10.104Z,3.30
2022-08-31T08:59:37.926Z,2.85
2022-08-31T09:02:06.878Z,2.92
2022-08-31T09:04:59.925Z,2.90
2022-08-31T09:07:54.340Z,3.00
2022-08-31T09:10:43.002Z,2.92
2022-08-31T09:13:11.344Z,3.20
2022-08-31T09:15:44.454Z,3.05
2022-08-31T09:18:24.991Z,2.63
2022-08-31T09:21:07.395Z,2.83
2022-08-31T09:23:42.533Z,3.03
2022-08-31T09:26:15.664Z,2.92
2022-08-31T09:29:05.785Z,3.20
2022-08-31T09:31:37.787Z,3.05
2022-08-31T09:34:08.665Z,2.80
2022-08-31T09:36:40.692Z,2.95
2022-08-31T09:39:15.368Z,2.78
2022-08-31T09:41:43.317Z,3.13
2022-08-31T09:44:17.269Z,2.75
2022-08-31T09:46:48.963Z,3.00
2022-08-31T09:49:21.181Z,2.80
2022-08-31T09:51:49.612Z,2.67
2022-08-31T09:54:35.782Z,2.88
2022-08-31T09:57:05.283Z,2.53
2022-08-31T09:59:53.889Z,2.83
2022-08-31T10:02:26.769Z,2.80
2022-08-31T10:04:56.002Z,2.53
2022-08-31T10:07:43.383Z,2.78
2022-08-31T10:10:30.017Z,2.63
2022-08-31T10:13:02.138Z,2.50
2022-08-31T10:15:48.731Z,2.90
2022-08-31T10:18:19.571Z,3.10
2022-08-31T10:20:50.870Z,2.50
2022-08-31T10:23:29.152Z,2.67
2022-08-31T10:26:14.046Z,2.97
2022-08-31T10:28:44.700Z,2.63
2022-08-31T10:31:24.099Z,2.85
2022-08-31T10:34:19.322Z,2.78
2022-08-31T10:36:48.624Z,2.65
2022-08-31T10:39:39.358Z,2.58
2022-08-31T10:42:10.317Z,2.90
2022-08-31T10:45:00.363Z,2.97
2022-08-31T10:47:34.523Z,2.65
2022-08-31T10:50:05.433Z,3.13
2022-08-31T10:52:43.099Z,2.78
2022-08-31T10:55:18.248Z,2.97
2022-08-31T10:57:45.733Z,3.10
2022-08-31T11:00:42.598Z,2.97
2022-08-31T11:03:22.711Z,3.47
2022-08-31T11:05:51.188Z,2.78
2022-08-31T11:08:36.574Z,2.90
2022-08-31T11:11:09.520Z,3.10
2022-08-31T11:13:55.063Z,2.90
2022-08-31T11:16:55.230Z,3.10
2022-08-31T11:19:26.542Z,3.05
2022-08-31T11:22:09.214Z,2.55
2022-08-31T11:24:50.715Z,2.85
2022-08-31T11:27:21.121Z,2.53
2022-08-31T11:30:01.043Z,2.90
2022-08-31T11:32:28.508Z,2.80
2022-08-31T11:34:57.650Z,2.83
2022-08-31T11:37:44.627Z,2.67
2022-08-31T11:40:12.404Z,2.88
2022-08-31T11:42:43.252Z,2.55
2022-08-31T11:45:28.862Z,2.65
2022-08-31T11:47:58.361Z,2.55
2022-08-31T11:50:25.871Z,3.00
2022-08-31T11:52:53.911Z,2.78
2022-08-31T11:55:23.784Z,2.50
2022-08-31T11:58:07.334Z,2.90
2022-08-31T12:00:44.177Z,2.60
2022-08-31T12:03:35.831Z,2.72
2022-08-31T12:06:03.916Z,2.70
2022-08-31T12:08:52.262Z,2.58
2022-08-31T12:11:40.998Z,2.63
2022-08-31T12:14:08.495Z,2.55
2022-08-31T12:16:49.705Z,2.70
2022-08-31T12:19:35.720Z,2.55
2022-08-31T12:22:32.133Z,2.45
2022-08-31T12:25:11.775Z,3.08
2022-08-31T12:27:42.147Z,2.60
2022-08-31T12:30:23.745Z,2.50
2022-08-31T12:33:03.996Z,3.08
2022-08-31T12:35:32.632Z,2.58
2022-08-31T12:38:03.153Z,2.88
2022-08-31T12:40:55.154Z,2.50
2022-08-31T12:43:38.309Z,2.67
2022-08-31T12:46:05.980Z,2.55
2022-08-31T12:48:36.721Z,2.85
2022-08-31T12:51:04.224Z,3.00
2022-08-31T12:53:43.752Z,2.55
2022-08-31T12:56:14.684Z,2.45
2022-08-31T12:58:42.236Z,2.85
2022-08-31T13:01:14.720Z,2.58
2022-08-31T13:03:46.915Z,2.65
2022-08-31T13:06:26.911Z,2.72
2022-08-31T13:08:55.263Z,2.50
2022-08-31T13:11:41.007Z,2.33
2022-08-31T13:14:08.932Z,2.63
2022-08-31T13:16:39.244Z,2.67
2022-08-31T13:19:07.427Z,2.60
2022-08-31T13:21:36.910Z,2.45
2022-08-31T13:24:07.404Z,2.58
2022-08-31T13:26:36.674Z,2.75
2022-08-31T13:29:07.707Z,2.50
2022-08-31T13:31:37.251Z,2.85
2022-08-31T13:34:07.540Z,2.40
2022-08-31T13:36:38.788Z,2.50
2022-08-31T13:39:12.454Z,2.40
2022-08-31T13:41:54.764Z,2.10
2022-08-31T13:44:23.316Z,2.25
2022-08-31T13:47:03.074Z,2.05
2022-08-31T13:49:35.805Z,2.58
2022-08-31T13:52:08.760Z,2.33
2022-08-31T13:54:36.917Z,2.38
2022-08-31T13:57:32.869Z,2.58
2022-08-31T14:00:21.718Z,2.30
2022-08-31T14:02:49.305Z,2.60
2022-08-31T14:05:36.125Z,2.30
2022-08-31T14:08:04.771Z,2.40
2022-08-31T14:10:35.268Z,2.33
2022-08-31T14:13:18.606Z,1.98
2022-08-31T14:15:54.238Z,2.22
2022-08-31T14:18:27.561Z,2.38
2022-08-31T14:21:24.258Z,2.30
2022-08-31T14:24:01.563Z,2.08
2022-08-31T14:26:41.825Z,2.30
2022-08-31T14:29:13.292Z,2.08
2022-08-31T14:31:55.069Z,2.08
2022-08-31T14:34:22.672Z,2.05
2022-08-31T14:36:55.596Z,2.30
2022-08-31T14:39:34.095Z,2.40
2022-08-31T14:42:28.114Z,2.20
2022-08-31T14:45:00.000Z,2.35
2022-08-31T14:47:28.750Z,2.25
2022-08-31T14:50:05.966Z,2.33
2022-08-31T14:52:34.891Z,2.22
2022-08-31T14:55:02.854Z,2.22
2022-08-31T14:57:31.498Z,2.33
2022-08-31T15:00:02.236Z,2.45
2022-08-31T15:02:33.457Z,2.08
2022-08-31T15:05:04.728Z,2.40
2022-08-31T15:07:33.400Z,2.20
2022-08-31T15:10:01.257Z,2.35
2022-08-31T15:12:29.032Z,2.20
2022-08-31T15:14:59.985Z,2.50
2022-08-31T15:17:28.485Z,2.40
2022-08-31T15:19:57.455Z,2.28
2022-08-31T15:22:26.531Z,2.30
2022-08-31T15:24:54.512Z,2.10
2022-08-31T15:27:22.611Z,2.15
2022-08-31T15:29:59.122Z,1.95
2022-08-31T15:32:27.910Z,2.10
2022-08-31T15:34:58.428Z,2.10
2022-08-31T15:37:31.891Z,2.35
2022-08-31T15:40:00.747Z,2.15
2022-08-31T15:42:29.719Z,2.38
2022-08-31T15:44:57.551Z,2.78
2022-08-31T15:47:44.541Z,2.78
2022-08-31T15:50:12.269Z,2.70
2022-08-31T15:52:45.746Z,2.50
2022-08-31T15:55:26.688Z,2.50
2022-08-31T15:57:55.390Z,2.50
2022-08-31T16:00:23.903Z,2.20
2022-08-31T16:02:54.278Z,2.53
2022-08-31T16:05:22.197Z,2.20
2022-08-31T16:07:51.333Z,2.17
2022-08-31T16:10:20.421Z,2.35
2022-08-31T16:12:50.508Z,2.30
2022-08-31T16:15:19.119Z,2.45
2022-08-31T16:17:50.286Z,2.00
2022-08-31T16:20:17.855Z,2.30
2022-08-31T16:22:45.530Z,2.20
2022-08-31T16:25:14.813Z,2.42
2022-08-31T16:27:43.533Z,2.30
2022-08-31T16:30:12.147Z,2.30
2022-08-31T16:32:40.132Z,2.30
2022-08-31T16:35:07.860Z,2.00
2022-08-31T16:37:35.470Z,2.28
2022-08-31T16:40:03.262Z,2.22
2022-08-31T16:42:30.907Z,2.15
2022-08-31T16:45:02.369Z,2.42
2022-08-31T16:47:30.532Z,2.00
2022-08-31T16:49:59.070Z,2.00
2022-08-31T16:52:27.811Z,2.10
2022-08-31T16:54:59.083Z,2.25
2022-08-31T16:57:27.870Z,2.20
2022-08-31T16:59:56.198Z,2.65
2022-08-31T17:02:24.391Z,2.10
2022-08-31T17:04:53.695Z,2.00
2022-08-31T17:07:22.211Z,2.50
2022-08-31T17:09:49.950Z,2.67
2022-08-31T17:12:21.838Z,2.55
2022-08-31T17:14:52.771Z,2.50
2022-08-31T17:17:25.142Z,2.38
2022-08-31T17:19:54.204Z,2.40
2022-08-31T17:22:30.074Z,2.65
2022-08-31T17:25:04.890Z,2.58
2022-08-31T17:27:33.747Z,2.22
2022-08-31T17:30:05.275Z,2.30
2022-08-31T17:32:32.919Z,2.38
2022-08-31T17:35:00.457Z,2.28
2022-08-31T17:37:32.606Z,2.20
2022-08-31T17:40:00.829Z,2.45
2022-08-31T17:42:29.270Z,2.47
2022-08-31T17:44:58.264Z,2.40
2022-08-31T17:47:26.358Z,2.50
2022-08-31T17:49:54.232Z,2.20
2022-08-31T17:52:23.227Z,2.25
2022-08-31T17:54:51.425Z,2.30
2022-08-31T17:57:21.461Z,2.42
2022-08-31T17:59:49.231Z,2.40
2022-08-31T18:02:19.151Z,2.63
2022-08-31T18:04:47.795Z,2.53
2022-08-31T18:07:15.452Z,2.28
2022-08-31T18:09:47.178Z,2.30
2022-08-31T18:12:16.016Z,2.10
2022-08-31T18:14:43.650Z,2.22
2022-08-31T18:17:12.729Z,2.10
2022-08-31T18:19:43.328Z,2.20
2022-08-31T18:22:11.048Z,2.55
2022-08-31T18:24:39.064Z,2.30
2022-08-31T18:27:07.767Z,2.30
2022-08-31T18:29:35.934Z,2.50
2022-08-31T18:32:04.368Z,2.90
2022-08-31T18:34:36.841Z,2.70
2022-08-31T18:37:04.847Z,2.35
2022-08-31T18:39:52.825Z,2.40
2022-08-31T18:42:39.931Z,2.25
2022-08-31T18:45:19.389Z,2.30
2022-08-31T18:50:45.887Z,2.22
2022-08-31T18:53:29.277Z,2.15
2022-08-31T18:56:10.868Z,2.35
2022-08-31T18:58:39.345Z,2.55
2022-08-31T19:01:11.471Z,2.03
2022-08-31T19:03:41.191Z,2.50
2022-08-31T19:06:09.313Z,2.50
2022-08-31T19:08:36.872Z,2.53
2022-08-31T19:11:07.190Z,2.28
2022-08-31T19:13:34.725Z,2.30
2022-08-31T19:16:14.820Z,2.40
2022-08-31T19:18:44.103Z,2.05
2022-08-31T19:21:16.562Z,2.20
2022-08-31T19:23:44.234Z,2.42
2022-08-31T19:26:11.820Z,2.40
2022-08-31T19:28:39.358Z,2.50
2022-08-31T19:31:09.904Z,2.10
2022-08-31T19:33:37.489Z,2.40
2022-08-31T19:36:05.937Z,2.60
2022-08-31T19:38:33.497Z,2.45
2022-08-31T19:41:01.615Z,2.55
2022-08-31T19:43:53.650Z,2.60
2022-08-31T19:46:20.834Z,2.70
2022-08-31T19:48:49.676Z,2.22
2022-08-31T19:51:18.845Z,2.50
2022-08-31T19:53:46.998Z,2.30
2022-08-31T19:56:17.523Z,2.40
2022-08-31T19:58:49.508Z,2.42
2022-08-31T20:01:18.259Z,2.38
2022-08-31T20:03:48.169Z,2.40
2022-08-31T20:06:17.007Z,2.45
2022-08-31T20:08:45.270Z,2.33
2022-08-31T20:11:18.050Z,2.33
2022-08-31T20:13:48.865Z,2.50
2022-08-31T20:16:17.145Z,2.67
2022-08-31T20:18:46.568Z,2.50
2022-08-31T20:21:18.784Z,2.30
2022-08-31T20:23:48.092Z,2.70
2022-08-31T20:26:16.326Z,2.50
2022-08-31T20:28:46.904Z,2.40
2022-08-31T20:31:14.633Z,2.40
2022-08-31T20:33:43.287Z,2.25
2022-08-31T20:36:18.975Z,2.35
2022-08-31T20:38:47.836Z,2.35
2022-08-31T20:41:15.842Z,2.47
2022-08-31T20:43:44.742Z,2.13
2022-08-31T20:46:31.238Z,2.28
2022-08-31T20:49:18.192Z,4.07
2022-08-31T20:51:45.732Z,2.33
2022-08-31T20:54:13.760Z,2.72
2022-08-31T20:56:41.291Z,2.70
2022-08-31T20:59:09.906Z,2.85
2022-08-31T21:01:41.118Z,2.30
2022-08-31T21:04:09.525Z,2.53
2022-08-31T21:06:40.299Z,2.75
2022-08-31T21:09:08.350Z,3.00
2022-08-31T21:11:40.775Z,2.50
2022-08-31T21:14:08.928Z,2.67
2022-08-31T21:16:37.652Z,2.85
2022-08-31T21:19:08.893Z,2.70
2022-08-31T21:21:36.499Z,2.45
2022-08-31T21:24:04.138Z,2.55
2022-08-31T21:26:31.677Z,2.70
2022-08-31T21:28:59.965Z,2.40
2022-08-31T21:31:28.535Z,2.50
2022-08-31T21:34:00.836Z,2.50
2022-08-31T21:36:29.098Z,2.80
2022-08-31T21:38:58.181Z,2.80
2022-08-31T21:41:27.954Z,2.85
2022-08-31T21:43:59.031Z,2.80
2022-08-31T21:46:28.063Z,2.90
2022-08-31T21:48:56.608Z,2.67
2022-08-31T21:51:24.172Z,2.78
2022-08-31T21:53:53.167Z,3.08
2022-08-31T21:56:24.312Z,2.75
2022-08-31T21:58:51.916Z,3.25
2022-08-31T22:01:20.157Z,3.17
2022-08-31T22:03:54.365Z,3.00
2022-08-31T22:06:27.247Z,2.80
2022-08-31T22:08:56.115Z,3.08
2022-08-31T22:11:24.771Z,3.00
2022-08-31T22:13:55.537Z,2.75
2022-08-31T22:16:23.885Z,3.35
2022-08-31T22:19:01.165Z,2.55
2022-08-31T22:21:31.219Z,2.85
2022-08-31T22:24:00.268Z,2.88
2022-08-31T22:26:28.790Z,2.90
2022-08-31T22:28:56.439Z,2.88
2022-08-31T22:31:25.419Z,2.47
2022-08-31T22:33:53.644Z,2.40
2022-08-31T22:36:31.109Z,2.80
2022-08-31T22:39:03.512Z,2.70
2022-08-31T22:41:35.765Z,2.47
2022-08-31T22:44:03.394Z,2.55
2022-08-31T22:46:31.255Z,2.80
2022-08-31T22:48:59.329Z,2.70
2022-08-31T22:51:27.536Z,2.55
2022-08-31T22:53:55.048Z,2.63
2022-08-31T22:56:27.597Z,2.72
2022-08-31T22:58:56.372Z,2.53
2022-08-31T23:01:25.311Z,2.63
2022-08-31T23:03:53.341Z,2.70
2022-08-31T23:06:23.326Z,2.70
2022-08-31T23:08:52.141Z,2.65
2022-08-31T23:11:20.409Z,2.50
2022-08-31T23:13:57.642Z,2.42
2022-08-31T23:16:28.206Z,2.63
2022-08-31T23:19:02.093Z,2.50
2022-08-31T23:21:31.324Z,2.70
2022-08-31T23:24:00.221Z,2.70
2022-08-31T23:26:28.198Z,2.58
2022-08-31T23:28:57.109Z,2.72
2022-08-31T23:31:25.257Z,2.95
2022-08-31T23:33:53.599Z,2.60
2022-08-31T23:36:26.192Z,2.80
2022-08-31T23:38:55.276Z,2.80
2022-08-31T23:41:25.915Z,2.40
2022-08-31T23:43:54.259Z,2.88
2022-08-31T23:46:23.910Z,2.58
2022-08-31T23:48:52.147Z,2.58
2022-08-31T23:51:20.124Z,2.65
2022-08-31T23:53:55.218Z,2.50
2022-08-31T23:56:27.629Z,2.42
2022-08-31T23:58:55.325Z,2.60
